YLVB weather

Lovely Banks Airport
Victoria, Australia

Public forecast

Using degrees Celsius for public forecast. Weather courtesy of forecast.io.

Closest aviation weather report (METAR) to Lovely Banks Airport

Closest report is Avalon Airport, 6.4 nm (11.9 km) E. Retrieved 2019/10/24 03:30 UTC (0 seconds ago):

YMAV 240330Z AUTO 01018KT 9999 // NCD 34/03 Q1009 RF000/0000

Closest aviation forecast (TAF) to Lovely Banks Airport

Forecast is more than 6 hours old.

Closest forecast is Avalon Airport, 6.4 nm (11.9 km) E. Retrieved 2019/10/23 18:00 UTC (9 hours ago):

TAF YMAV 231705Z 2318/2418 04010KT CAVOK FM240000 35016G28KT CAVOK FM240500 35014KT CAVOK FM240700 03010KT CAVOK